createdAt,value
2022-12-15T00:02:05.100Z,10.80
2022-12-15T00:04:50.164Z,10.82
2022-12-15T00:07:34.958Z,10.00
2022-12-15T00:10:19.751Z,14.23
2022-12-15T00:13:04.445Z,15.68
2022-12-15T00:15:49.101Z,10.60
2022-12-15T00:18:34.036Z,13.40
2022-12-15T00:21:19.287Z,9.65
2022-12-15T00:24:04.193Z,12.15
2022-12-15T00:26:49.389Z,10.95
2022-12-15T00:29:34.776Z,10.10
2022-12-15T00:32:19.619Z,16.20
2022-12-15T00:35:04.534Z,14.20
2022-12-15T00:37:49.455Z,10.13
2022-12-15T00:40:16.027Z,13.38
2022-12-15T00:42:42.476Z,10.32
2022-12-15T00:45:09.293Z,12.20
2022-12-15T00:47:36.488Z,9.93
2022-12-15T00:50:22.246Z,12.55
2022-12-15T00:53:07.057Z,11.10
2022-12-15T00:55:51.776Z,12.13
2022-12-15T00:58:36.658Z,8.82
2022-12-15T01:01:26.738Z,8.10
2022-12-15T01:04:12.031Z,9.43
2022-12-15T01:06:57.069Z,11.88
2022-12-15T01:09:42.379Z,10.27
2022-12-15T01:12:27.231Z,13.60
2022-12-15T01:15:11.971Z,15.43
2022-12-15T01:17:56.888Z,11.88
2022-12-15T01:20:23.334Z,12.07
2022-12-15T01:22:53.035Z,12.77
2022-12-15T01:25:22.094Z,13.32
2022-12-15T01:27:49.365Z,12.70
2022-12-15T01:30:18.912Z,13.33
2022-12-15T01:32:46.311Z,8.90
2022-12-15T01:35:13.410Z,12.40
2022-12-15T01:37:40.018Z,8.90
2022-12-15T01:40:27.770Z,13.70
2022-12-15T01:42:54.178Z,11.05
2022-12-15T01:45:45.022Z,15.32
2022-12-15T01:48:14.995Z,11.27
2022-12-15T01:50:46.859Z,10.60
2022-12-15T01:53:14.192Z,12.55
2022-12-15T01:55:44.217Z,12.30
2022-12-15T01:58:16.784Z,13.77
2022-12-15T02:00:43.611Z,14.60
2022-12-15T02:03:11.968Z,12.70
2022-12-15T02:05:41.285Z,10.30
2022-12-15T02:08:09.492Z,13.07
2022-12-15T02:10:56.379Z,13.07
2022-12-15T02:13:39.419Z,13.27
2022-12-15T02:16:20.685Z,10.35
2022-12-15T02:19:26.005Z,13.68
2022-12-15T02:22:07.568Z,9.13
2022-12-15T02:25:06.497Z,12.23
2022-12-15T02:27:51.664Z,13.93
2022-12-15T02:30:35.748Z,9.90
2022-12-15T02:33:11.531Z,8.10
2022-12-15T02:35:56.421Z,8.68
2022-12-15T02:38:38.439Z,9.55
2022-12-15T02:41:26.589Z,9.30
2022-12-15T02:43:52.991Z,11.68
2022-12-15T02:46:27.903Z,11.88
2022-12-15T02:49:18.358Z,9.37
2022-12-15T02:51:59.782Z,7.18
2022-12-15T02:54:29.126Z,11.10
2022-12-15T02:57:38.103Z,7.53
2022-12-15T03:00:10.566Z,10.82
2022-12-15T03:02:41.860Z,11.32
2022-12-15T03:05:09.317Z,11.90
2022-12-15T03:07:35.756Z,9.03
2022-12-15T03:10:05.123Z,9.85
2022-12-15T03:12:31.716Z,10.10
2022-12-15T03:14:58.138Z,8.13
2022-12-15T03:17:24.758Z,10.38
2022-12-15T03:19:51.219Z,10.00
2022-12-15T03:22:17.679Z,11.93
2022-12-15T03:24:44.037Z,9.25
2022-12-15T03:27:10.642Z,9.90
2022-12-15T03:29:37.041Z,11.50
2022-12-15T03:32:03.669Z,8.23
2022-12-15T03:34:30.171Z,12.48
2022-12-15T03:36:56.781Z,8.15
2022-12-15T03:39:23.247Z,7.93
2022-12-15T03:41:49.806Z,8.57
2022-12-15T03:44:16.359Z,11.60
2022-12-15T03:46:42.719Z,9.35
2022-12-15T03:49:09.167Z,12.60
2022-12-15T03:51:35.582Z,8.73
2022-12-15T03:54:01.921Z,8.38
2022-12-15T03:56:28.379Z,11.87
2022-12-15T03:58:54.779Z,12.05
2022-12-15T04:01:21.296Z,12.60
2022-12-15T04:03:47.906Z,8.37
2022-12-15T04:06:14.303Z,8.55
2022-12-15T04:08:40.722Z,12.30
2022-12-15T04:11:07.099Z,12.50
2022-12-15T04:13:33.972Z,9.65
2022-12-15T04:16:04.466Z,8.07
2022-12-15T04:18:30.851Z,9.80
2022-12-15T04:20:57.594Z,11.17
2022-12-15T04:23:24.350Z,11.68
2022-12-15T04:26:09.384Z,10.32
2022-12-15T04:28:55.393Z,10.40
2022-12-15T04:31:47.138Z,8.30
2022-12-15T04:34:36.579Z,9.73
2022-12-15T04:37:21.412Z,11.23
2022-12-15T04:40:08.654Z,8.18
2022-12-15T04:42:56.058Z,8.90
2022-12-15T04:45:43.519Z,9.85
2022-12-15T04:48:28.875Z,10.40
2022-12-15T04:51:14.391Z,6.55
2022-12-15T04:54:02.128Z,10.10
2022-12-15T04:56:47.468Z,11.47
2022-12-15T04:59:35.289Z,10.80
2022-12-15T05:02:20.321Z,9.10
2022-12-15T05:05:05.564Z,11.27
2022-12-15T05:07:50.347Z,8.35
2022-12-15T05:10:35.666Z,10.88
2022-12-15T05:13:25.205Z,9.35
2022-12-15T05:16:10.271Z,10.73
2022-12-15T05:18:55.441Z,10.15
2022-12-15T05:21:40.255Z,10.73
2022-12-15T05:24:25.690Z,6.93
2022-12-15T05:27:11.052Z,13.70
2022-12-15T05:29:55.661Z,8.02
2022-12-15T05:32:22.073Z,9.85
2022-12-15T05:34:48.500Z,8.55
2022-12-15T05:37:15.147Z,9.02
2022-12-15T05:39:42.166Z,7.78
2022-12-15T05:42:08.613Z,11.37
2022-12-15T05:44:35.005Z,13.68
2022-12-15T05:47:01.395Z,15.82
2022-12-15T05:49:27.840Z,10.13
2022-12-15T05:51:54.416Z,14.95
2022-12-15T05:54:20.956Z,11.52
2022-12-15T05:56:50.507Z,15.68
2022-12-15T05:59:17.772Z,8.40
2022-12-15T06:01:44.268Z,9.27
2022-12-15T06:04:12.741Z,14.70
2022-12-15T06:06:39.967Z,9.83
2022-12-15T06:09:08.463Z,12.65
2022-12-15T06:11:34.947Z,9.60
2022-12-15T06:14:01.345Z,9.53
2022-12-15T06:16:30.398Z,9.50
2022-12-15T06:19:00.343Z,15.23
2022-12-15T06:21:30.216Z,8.77
2022-12-15T06:23:57.228Z,8.18
2022-12-15T06:26:33.847Z,13.23
2022-12-15T06:29:04.573Z,12.48
2022-12-15T06:31:32.600Z,13.00
2022-12-15T06:34:02.418Z,10.77
2022-12-15T06:36:30.629Z,13.18
2022-12-15T06:39:02.126Z,9.30
2022-12-15T06:41:32.197Z,14.10
2022-12-15T06:43:59.923Z,9.45
2022-12-15T06:46:28.652Z,11.73
2022-12-15T06:48:55.399Z,10.18
2022-12-15T06:51:21.874Z,13.15
2022-12-15T06:53:54.040Z,11.20
2022-12-15T06:56:34.376Z,9.27
2022-12-15T06:59:03.468Z,11.68
2022-12-15T07:01:30.827Z,11.60
2022-12-15T07:03:59.955Z,9.93
2022-12-15T07:06:27.447Z,10.65
2022-12-15T07:08:56.470Z,10.35
2022-12-15T07:11:23.706Z,12.85
2022-12-15T07:13:51.507Z,12.32
2022-12-15T07:16:18.089Z,10.32
2022-12-15T07:18:44.579Z,13.90
2022-12-15T07:21:11.573Z,12.97
2022-12-15T07:23:55.899Z,9.10
2022-12-15T07:26:24.146Z,11.13
2022-12-15T07:28:50.782Z,13.73
2022-12-15T07:31:17.685Z,16.48
2022-12-15T07:33:44.360Z,10.80
2022-12-15T07:36:11.007Z,13.30
2022-12-15T07:38:37.617Z,12.98
2022-12-15T07:41:05.938Z,11.45
2022-12-15T07:43:32.935Z,12.68
2022-12-15T07:46:00.293Z,13.37
2022-12-15T07:48:27.378Z,14.73
2022-12-15T07:51:02.775Z,11.43
2022-12-15T07:53:34.224Z,9.97
2022-12-15T07:56:09.670Z,12.68
2022-12-15T07:58:37.868Z,12.57
2022-12-15T08:01:12.337Z,15.20
2022-12-15T08:03:40.013Z,14.13
2022-12-15T08:06:10.003Z,12.00
2022-12-15T08:08:37.042Z,17.92
2022-12-15T08:11:08.233Z,15.67
2022-12-15T08:16:21.909Z,10.40
2022-12-15T08:18:48.904Z,12.03
2022-12-15T08:21:15.550Z,11.77
2022-12-15T08:23:42.079Z,12.15
2022-12-15T08:26:11.824Z,14.93
2022-12-15T08:28:39.746Z,10.98
2022-12-15T08:31:08.786Z,15.30
2022-12-15T08:33:36.090Z,15.27
2022-12-15T08:36:05.962Z,12.50
2022-12-15T08:38:33.359Z,15.18
2022-12-15T08:41:10.818Z,15.73
2022-12-15T08:43:42.585Z,13.20
2022-12-15T08:46:12.899Z,13.70
2022-12-15T08:48:39.978Z,13.13
2022-12-15T08:51:06.869Z,13.68
2022-12-15T08:53:33.396Z,17.88
2022-12-15T08:56:08.822Z,13.63
2022-12-15T08:58:35.333Z,15.45
2022-12-15T09:01:04.283Z,12.97
2022-12-15T09:03:31.096Z,16.70
2022-12-15T09:06:05.481Z,17.02
2022-12-15T09:08:32.794Z,16.17
2022-12-15T09:11:00.154Z,13.77
2022-12-15T09:13:27.247Z,15.38
2022-12-15T09:16:13.146Z,17.33
2022-12-15T09:18:42.472Z,15.27
2022-12-15T09:21:09.401Z,16.53
2022-12-15T09:23:36.823Z,14.65
2022-12-15T09:26:14.196Z,16.52
2022-12-15T09:28:41.390Z,16.25
2022-12-15T09:31:14.236Z,16.58
2022-12-15T09:33:41.872Z,14.87
2022-12-15T09:36:09.220Z,18.63
2022-12-15T09:38:40.987Z,14.13
2022-12-15T09:41:13.539Z,18.25
2022-12-15T09:43:50.628Z,17.25
2022-12-15T09:46:42.301Z,12.67
2022-12-15T09:49:21.569Z,17.02
2022-12-15T09:52:01.047Z,16.17
2022-12-15T09:54:33.862Z,14.68
2022-12-15T09:57:08.256Z,16.27
2022-12-15T09:59:57.865Z,14.63
2022-12-15T10:02:33.457Z,17.85
2022-12-15T10:05:21.671Z,16.88
2022-12-15T10:07:50.571Z,16.08
2022-12-15T10:10:29.868Z,18.38
2022-12-15T10:16:00.759Z,17.23
2022-12-15T10:18:35.229Z,16.48
2022-12-15T10:21:02.362Z,14.98
2022-12-15T10:23:29.389Z,17.45
2022-12-15T10:26:19.216Z,14.33
2022-12-15T10:29:11.666Z,14.30
2022-12-15T10:31:54.702Z,15.25
2022-12-15T10:34:25.792Z,16.30
2022-12-15T10:36:53.597Z,15.38
2022-12-15T10:39:21.131Z,15.77
2022-12-15T10:42:21.296Z,19.48
2022-12-15T10:44:51.539Z,15.18
2022-12-15T10:47:20.612Z,14.90
2022-12-15T10:49:48.537Z,15.80
2022-12-15T10:52:28.224Z,13.73
2022-12-15T10:54:55.904Z,15.52
2022-12-15T10:57:28.116Z,16.48
2022-12-15T11:00:00.581Z,18.20
2022-12-15T11:02:33.541Z,15.80
2022-12-15T11:05:15.474Z,14.70
2022-12-15T11:07:49.281Z,16.85
2022-12-15T11:10:24.825Z,18.90
2022-12-15T11:13:00.447Z,19.73
2022-12-15T11:15:38.842Z,22.00
2022-12-15T11:18:12.861Z,18.73
2022-12-15T11:20:54.802Z,17.38
2022-12-15T11:23:37.941Z,16.55
2022-12-15T11:26:22.558Z,18.83
2022-12-15T11:28:56.361Z,19.55
2022-12-15T11:31:36.994Z,17.63
2022-12-15T11:34:11.060Z,19.30
2022-12-15T11:37:24.005Z,17.67
2022-12-15T11:39:56.403Z,14.32
2022-12-15T11:42:47.921Z,15.18
2022-12-15T11:45:30.467Z,15.77
2022-12-15T11:48:14.980Z,16.02
2022-12-15T11:50:57.193Z,16.38
2022-12-15T11:53:32.764Z,16.10
2022-12-15T11:56:15.853Z,18.52
2022-12-15T11:59:20.914Z,14.07
2022-12-15T12:02:13.252Z,18.50
2022-12-15T12:05:15.415Z,16.48
2022-12-15T12:08:06.990Z,14.18
2022-12-15T12:11:02.523Z,15.30
2022-12-15T12:13:42.883Z,14.53
2022-12-15T12:16:27.857Z,20.65
2022-12-15T12:19:01.005Z,16.00
2022-12-15T12:21:35.815Z,14.63
2022-12-15T12:24:23.993Z,13.85
2022-12-15T12:27:02.735Z,15.87
2022-12-15T12:29:43.116Z,13.25
2022-12-15T12:32:21.413Z,18.38
2022-12-15T12:34:47.914Z,17.67
2022-12-15T12:37:35.740Z,20.60
2022-12-15T12:40:16.673Z,14.47
2022-12-15T12:42:53.314Z,16.25
2022-12-15T12:45:24.136Z,16.83
2022-12-15T12:47:54.333Z,17.05
2022-12-15T12:50:23.900Z,15.10
2022-12-15T12:52:55.038Z,17.60
2022-12-15T12:55:26.207Z,15.52
2022-12-15T12:57:54.322Z,18.52
2022-12-15T13:00:27.163Z,16.30
2022-12-15T13:03:10.365Z,17.55
2022-12-15T13:05:38.552Z,20.83
2022-12-15T13:08:08.190Z,19.65
2022-12-15T13:10:43.153Z,24.83
2022-12-15T13:13:18.716Z,22.20
2022-12-15T13:18:57.188Z,24.47
2022-12-15T13:21:51.216Z,17.52
2022-12-15T13:24:41.677Z,19.52
2022-12-15T13:27:17.316Z,24.58
2022-12-15T13:30:08.107Z,22.88
2022-12-15T13:32:57.778Z,20.63
2022-12-15T13:35:31.424Z,20.55
2022-12-15T13:38:03.085Z,21.20
2022-12-15T13:40:35.654Z,22.60
2022-12-15T13:43:05.131Z,25.40
2022-12-15T13:45:36.663Z,24.40
2022-12-15T13:48:32.475Z,23.38
2022-12-15T13:51:21.822Z,18.95
2022-12-15T13:53:56.122Z,22.42
2022-12-15T13:56:50.860Z,20.33
2022-12-15T13:59:39.748Z,19.30
2022-12-15T14:02:31.037Z,21.10
2022-12-15T14:05:13.171Z,18.38
2022-12-15T14:07:54.377Z,19.67
2022-12-15T14:10:27.626Z,18.17
2022-12-15T14:12:57.684Z,25.33
2022-12-15T14:15:31.870Z,23.48
2022-12-15T14:18:01.653Z,23.90
2022-12-15T14:20:32.361Z,21.90
2022-12-15T14:22:59.031Z,24.80
2022-12-15T14:25:29.416Z,19.47
2022-12-15T14:27:56.887Z,20.73
2022-12-15T14:30:33.128Z,21.45
2022-12-15T14:33:07.032Z,26.30
2022-12-15T14:35:42.205Z,22.88
2022-12-15T14:38:17.542Z,23.67
2022-12-15T14:40:49.193Z,23.92
2022-12-15T14:43:24.817Z,23.85
2022-12-15T14:45:56.674Z,28.38
2022-12-15T14:48:41.092Z,27.70
2022-12-15T14:51:12.423Z,21.27
2022-12-15T14:53:41.803Z,23.40
2022-12-15T14:56:30.099Z,23.05
2022-12-15T14:59:18.851Z,20.67
2022-12-15T15:02:10.992Z,25.05
2022-12-15T15:03:10.904Z,14.60
2022-12-15T15:03:16.375Z,17.52
2022-12-15T15:04:37.557Z,23.60
2022-12-15T15:07:17.606Z,25.25
2022-12-15T15:09:46.196Z,27.40
2022-12-15T15:12:21.840Z,27.13
2022-12-15T15:14:51.512Z,25.27
2022-12-15T15:17:25.666Z,27.50
2022-12-15T15:19:57.354Z,24.13
2022-12-15T15:22:41.012Z,22.85
2022-12-15T15:25:45.189Z,27.17
2022-12-15T15:28:13.675Z,23.58
2022-12-15T15:30:43.408Z,25.20
2022-12-15T15:33:10.677Z,28.30
2022-12-15T15:35:37.467Z,26.35
2022-12-15T15:38:23.157Z,26.67
2022-12-15T15:41:01.244Z,32.65
2022-12-15T15:43:28.825Z,26.87
2022-12-15T15:46:01.703Z,26.20
2022-12-15T15:48:47.850Z,27.92
2022-12-15T15:51:15.898Z,29.38
2022-12-15T15:53:42.650Z,24.70
2022-12-15T15:56:15.451Z,28.23
2022-12-15T15:58:46.596Z,31.15
2022-12-15T16:01:13.904Z,32.72
2022-12-15T16:03:41.416Z,31.92
2022-12-15T16:06:16.815Z,28.42
2022-12-15T16:08:44.017Z,31.37
2022-12-15T16:11:12.235Z,30.65
2022-12-15T16:13:39.236Z,32.78
2022-12-15T16:16:06.688Z,29.33
2022-12-15T16:18:33.630Z,27.90
2022-12-15T16:21:00.472Z,33.60
2022-12-15T16:23:29.264Z,31.70
2022-12-15T16:26:00.335Z,29.00
2022-12-15T16:28:29.516Z,33.30
2022-12-15T16:30:58.748Z,32.28
2022-12-15T16:33:25.589Z,33.27
2022-12-15T16:35:52.194Z,33.05
2022-12-15T16:38:25.620Z,34.05
2022-12-15T16:40:53.011Z,37.53
2022-12-15T16:43:24.061Z,33.90
2022-12-15T16:45:53.847Z,28.70
2022-12-15T16:48:20.912Z,27.80
2022-12-15T16:50:52.201Z,34.08
2022-12-15T16:53:30.501Z,32.78
2022-12-15T16:55:59.139Z,33.20
2022-12-15T16:58:27.059Z,30.00
2022-12-15T17:00:53.898Z,39.92
2022-12-15T17:03:26.688Z,34.42
2022-12-15T17:05:56.028Z,33.40
2022-12-15T17:08:54.172Z,35.42
2022-12-15T17:11:24.290Z,40.87
2022-12-15T17:13:53.645Z,33.85
2022-12-15T17:16:22.431Z,32.15
2022-12-15T17:18:49.934Z,39.70
2022-12-15T17:21:47.494Z,36.88
2022-12-15T17:24:17.845Z,37.13
2022-12-15T17:26:44.599Z,31.17
2022-12-15T17:29:18.030Z,33.08
2022-12-15T17:31:44.513Z,35.42
2022-12-15T17:34:27.587Z,29.45
2022-12-15T17:36:55.247Z,36.17
2022-12-15T17:39:22.789Z,37.25
2022-12-15T17:41:59.762Z,31.58
2022-12-15T17:44:36.184Z,38.83
2022-12-15T17:47:05.687Z,31.33
2022-12-15T17:49:36.245Z,31.50
2022-12-15T17:52:07.122Z,36.35
2022-12-15T17:54:33.685Z,40.63
2022-12-15T17:57:00.224Z,38.13
2022-12-15T17:59:26.674Z,32.70
2022-12-15T18:01:56.753Z,33.10
2022-12-15T18:04:23.278Z,47.55
2022-12-15T18:06:49.714Z,40.65
2022-12-15T18:09:17.848Z,36.50
2022-12-15T18:11:46.701Z,32.08
2022-12-15T18:14:15.987Z,35.37
2022-12-15T18:16:43.201Z,34.03
2022-12-15T18:19:09.646Z,41.17
2022-12-15T18:21:36.865Z,40.17
2022-12-15T18:24:03.967Z,32.22
2022-12-15T18:26:37.659Z,36.27
2022-12-15T18:29:12.785Z,36.80
2022-12-15T18:31:39.563Z,30.63
2022-12-15T18:34:15.437Z,33.53
2022-12-15T18:36:41.934Z,37.08
2022-12-15T18:39:18.098Z,29.93
2022-12-15T18:41:44.698Z,36.75
2022-12-15T18:44:20.920Z,36.00
2022-12-15T18:46:48.260Z,34.83
2022-12-15T18:49:14.946Z,35.80
2022-12-15T18:51:41.358Z,44.47
2022-12-15T18:54:16.599Z,33.70
2022-12-15T18:56:43.001Z,40.65
2022-12-15T18:59:17.284Z,36.50
2022-12-15T19:01:47.368Z,38.80
2022-12-15T19:04:14.879Z,37.03
2022-12-15T19:06:41.932Z,40.28
2022-12-15T19:09:17.066Z,35.95
2022-12-15T19:12:15.981Z,39.72
2022-12-15T19:14:43.246Z,34.15
2022-12-15T19:17:38.102Z,41.77
2022-12-15T19:20:35.551Z,37.17
2022-12-15T19:23:03.596Z,36.97
2022-12-15T19:25:31.594Z,38.83
2022-12-15T19:27:59.968Z,39.63
2022-12-15T19:30:38.495Z,37.93
2022-12-15T19:33:08.622Z,35.00
2022-12-15T19:35:37.106Z,36.95
2022-12-15T19:38:04.687Z,35.88
2022-12-15T19:40:32.955Z,37.85
2022-12-15T19:43:00.990Z,41.37
2022-12-15T19:45:31.676Z,37.42
2022-12-15T19:48:00.057Z,41.60
2022-12-15T19:50:36.392Z,36.22
2022-12-15T19:53:10.031Z,36.05
2022-12-15T19:55:38.724Z,32.90
2022-12-15T19:58:31.164Z,33.15
2022-12-15T20:01:01.423Z,36.22
2022-12-15T20:03:29.888Z,35.28
2022-12-15T20:06:01.092Z,35.47
2022-12-15T20:08:32.901Z,41.40
2022-12-15T20:10:59.753Z,37.15
2022-12-15T20:13:26.631Z,36.88
2022-12-15T20:15:55.087Z,35.58
2022-12-15T20:18:21.622Z,37.63
2022-12-15T20:20:49.339Z,40.60
2022-12-15T20:23:18.477Z,39.22
2022-12-15T20:25:45.277Z,39.33
2022-12-15T20:28:21.579Z,38.97
2022-12-15T20:30:48.948Z,34.10
2022-12-15T20:33:15.646Z,30.53
2022-12-15T20:35:44.233Z,37.88
2022-12-15T20:38:30.165Z,34.38
2022-12-15T20:40:56.786Z,44.58
2022-12-15T20:43:25.198Z,38.75
2022-12-15T20:46:01.080Z,33.13
2022-12-15T20:48:29.968Z,35.92
2022-12-15T20:50:57.676Z,37.33
2022-12-15T20:53:26.029Z,35.05
2022-12-15T20:55:54.165Z,33.45
2022-12-15T20:58:21.257Z,39.10
2022-12-15T21:00:49.041Z,39.78
2022-12-15T21:03:31.011Z,40.63
2022-12-15T21:05:58.789Z,39.35
2022-12-15T21:08:27.989Z,37.38
2022-12-15T21:10:59.448Z,33.43
2022-12-15T21:13:30.287Z,36.25
2022-12-15T21:15:57.072Z,35.85
2022-12-15T21:21:18.788Z,33.30
2022-12-15T21:23:45.635Z,36.07
2022-12-15T21:26:13.481Z,27.90
2022-12-15T21:28:39.888Z,36.20
2022-12-15T21:31:06.359Z,38.90
2022-12-15T21:33:33.064Z,31.92
2022-12-15T21:35:59.785Z,35.70
2022-12-15T21:38:36.469Z,33.33
2022-12-15T21:41:06.066Z,33.78
2022-12-15T21:43:35.223Z,35.28
2022-12-15T21:46:03.752Z,33.08
2022-12-15T21:48:48.566Z,34.30
2022-12-15T21:51:17.036Z,28.95
2022-12-15T21:53:45.632Z,34.75
2022-12-15T21:56:18.866Z,36.40
2022-12-15T21:58:48.900Z,32.28
2022-12-15T22:01:18.352Z,32.40
2022-12-15T22:03:50.528Z,31.13
2022-12-15T22:06:19.541Z,35.00
2022-12-15T22:08:46.087Z,34.33
2022-12-15T22:11:24.654Z,35.92
2022-12-15T22:13:53.286Z,30.57
2022-12-15T22:16:22.508Z,29.50
2022-12-15T22:18:51.830Z,31.85
2022-12-15T22:21:18.338Z,34.92
2022-12-15T22:23:45.099Z,34.65
2022-12-15T22:26:22.755Z,34.03
2022-12-15T22:28:51.057Z,35.28
2022-12-15T22:31:18.565Z,37.15
2022-12-15T22:33:45.043Z,29.20
2022-12-15T22:36:11.533Z,40.40
2022-12-15T22:38:37.995Z,34.13
2022-12-15T22:41:06.700Z,37.17
2022-12-15T22:43:40.056Z,37.22
2022-12-15T22:46:09.600Z,36.40
2022-12-15T22:48:41.423Z,34.22
2022-12-15T22:51:13.084Z,37.03
2022-12-15T22:53:39.838Z,34.72
2022-12-15T22:56:21.140Z,35.25
2022-12-15T22:58:50.229Z,31.38
2022-12-15T23:01:18.720Z,35.65
2022-12-15T23:03:45.247Z,34.37
2022-12-15T23:06:11.746Z,35.13
2022-12-15T23:08:38.218Z,38.10
2022-12-15T23:11:23.316Z,34.75
2022-12-15T23:13:49.715Z,33.60
2022-12-15T23:16:22.997Z,35.03
2022-12-15T23:18:54.730Z,34.60
2022-12-15T23:21:22.375Z,35.90
2022-12-15T23:23:49.104Z,40.05
2022-12-15T23:26:16.595Z,34.13
2022-12-15T23:28:43.551Z,34.83
2022-12-15T23:31:10.581Z,32.85
2022-12-15T23:33:41.635Z,30.20
2022-12-15T23:36:09.738Z,31.30
2022-12-15T23:38:36.435Z,36.88
2022-12-15T23:41:02.877Z,32.13
2022-12-15T23:43:32.287Z,37.35
2022-12-15T23:46:07.663Z,37.85
2022-12-15T23:48:38.281Z,35.63
2022-12-15T23:51:17.173Z,40.58
2022-12-15T23:53:45.369Z,36.70
2022-12-15T23:56:17.675Z,35.83
2022-12-15T23:58:45.136Z,34.28
